Sunflower Pearl — JD2496 — position and weather

sailwx.info

Track history (hours):
 
Tides and Currents Weather Stations Pressure Air Temp Water Temp Dewpoint Dewpoint Depression Visibility Wind Speed Wind Dir Waves Ship Positions

Sunflower Pearl

Last reported at 2017-Sep-22 01:58 UTC. Time now 2017-Sep-22 09:57 UTC.
Position N 34°42' E 135°17'.

Length 166 m; draft 6 m.

Type: Passenger vessel. MMSI: 431000406.

Date/timePositionNaut miles runAvg speedWind from/ knotsBaromVisibWave heightAir tempDewpointWater temp
2017-Sep-22 01:58N 34°42' E 135°17'0 0.0
2017-Sep-22 01:28N 34°42' E 135°17'0 0.0
2017-Sep-22 00:52N 34°42' E 135°17'0 0.0
2017-Sep-22 00:22N 34°42' E 135°17'0 0.0
2017-Sep-21 23:52N 34°42' E 135°17'0 0.0
2017-Sep-21 23:22N 34°42' E 135°17'0 0.0
2017-Sep-21 22:52N 34°42' E 135°17'0 0.0
2017-Sep-21 22:28N 34°42' E 135°17'0 0.0
2017-Sep-21 21:58N 34°42' E 135°17'0 0.1
2017-Sep-21 21:30N 34°42' E 135°17'612.5
2017-Sep-21 21:00N 34°36' E 135°15'1019.6
2017-Sep-21 20:30N 34°35' E 135°04'12 0.4
2017-Sep-20 11:30N 34°34' E 134°49'1121.9
2017-Sep-20 11:00N 34°37' E 135°02'918.6
2017-Sep-20 10:30N 34°37' E 135°13'611.9
2017-Sep-20 10:00N 34°42' E 135°17'0 0.0
2017-Sep-20 09:30N 34°42' E 135°17'0 0.0
2017-Sep-20 09:00N 34°42' E 135°17'0 0.0
2017-Sep-20 08:30N 34°42' E 135°17'0 0.0
2017-Sep-20 08:00N 34°42' E 135°17'0 0.0
2017-Sep-20 07:30N 34°42' E 135°17'0 0.0
2017-Sep-20 07:00N 34°42' E 135°17'0 0.0
2017-Sep-20 06:15N 34°42' E 135°17'0 0.0
2017-Sep-20 05:51N 34°42' E 135°17'0 0.0
2017-Sep-20 05:27N 34°42' E 135°17'0 0.0
2017-Sep-20 04:57N 34°42' E 135°17'0 0.0
2017-Sep-20 04:27N 34°42' E 135°17'0 0.0
2017-Sep-20 03:57N 34°42' E 135°17'0 0.0
2017-Sep-20 03:27N 34°42' E 135°17'0 0.0
2017-Sep-20 02:51N 34°42' E 135°17'0 0.0
2017-Sep-20 02:27N 34°42' E 135°17'0 0.0
2017-Sep-20 01:57N 34°42' E 135°17'0 0.0
2017-Sep-20 01:21N 34°42' E 135°17'0 0.0
2017-Sep-20 00:57N 34°42' E 135°17'0 0.0
2017-Sep-20 00:27N 34°42' E 135°17'0 0.0
2017-Sep-19 23:57N 34°42' E 135°17'0 0.0
2017-Sep-19 23:27N 34°42' E 135°17'0 0.0
2017-Sep-19 22:57N 34°42' E 135°17'0 0.0
2017-Sep-19 22:21N 34°42' E 135°17'0 0.0
2017-Sep-19 21:45N 34°42' E 135°17'0 0.0
2017-Sep-19 21:30N 34°42' E 135°17'5 9.2
2017-Sep-19 21:00N 34°37' E 135°17'1020.3
2017-Sep-19 20:30N 34°35' E 135°06'918.2
2017-Sep-19 20:00N 34°35' E 134°54'3 0.1
2017-Sep-18 11:27N 34°34' E 134°50'1021.3
2017-Sep-18 11:00N 34°37' E 135°01'919.3
2017-Sep-18 10:30N 34°37' E 135°13'612.1
2017-Sep-18 10:00N 34°42' E 135°17'0 0.0
2017-Sep-18 09:26N 34°42' E 135°17'0 0.0
2017-Sep-18 08:56N 34°42' E 135°17'0 0.0
2017-Sep-18 08:26N 34°42' E 135°17'0 0.0
2017-Sep-18 07:56N 34°42' E 135°17'0 0.0
2017-Sep-18 07:26N 34°42' E 135°17'0 0.0
2017-Sep-18 06:56N 34°42' E 135°17'0 0.0
2017-Sep-18 06:26N 34°42' E 135°17'0 0.0
2017-Sep-18 05:56N 34°42' E 135°17'0 0.0
2017-Sep-18 05:26N 34°42' E 135°17'0 0.0
2017-Sep-18 04:56N 34°42' E 135°17'0 0.0
2017-Sep-18 04:26N 34°42' E 135°17'0 0.0
2017-Sep-18 03:56N 34°42' E 135°17'0 0.0
2017-Sep-18 03:26N 34°42' E 135°17'0 0.0
2017-Sep-18 02:56N 34°42' E 135°17'0 0.0
2017-Sep-18 02:20N 34°42' E 135°17'0 0.0
2017-Sep-18 02:00N 34°42' E 135°17'4 8.3
2017-Sep-18 01:31N 34°38' E 135°17'816.4
2017-Sep-18 01:00N 34°35' E 135°08'816.1
2017-Sep-18 00:30N 34°37' E 134°58'13 0.5
2017-Sep-16 23:31N 34°39' E 134°42'019.1
2017-Sep-16 23:30N 34°39' E 134°42'4 0.2
2017-Sep-16 05:46N 34°40' E 134°47'621.2
2017-Sep-16 05:28N 34°37' E 134°53'817.7
2017-Sep-16 05:00N 34°36' E 135°03'918.3
2017-Sep-16 04:30N 34°36' E 135°14'612.0
2017-Sep-16 04:00N 34°42' E 135°17'0 0.0
2017-Sep-16 03:28N 34°42' E 135°17'0 0.0
2017-Sep-16 02:58N 34°42' E 135°17'0 0.0
2017-Sep-16 02:28N 34°42' E 135°17'0 0.0
2017-Sep-16 01:58N 34°42' E 135°17'0 0.0
2017-Sep-16 01:28N 34°42' E 135°17'0 0.0
2017-Sep-16 00:46N 34°42' E 135°17'0 0.0
2017-Sep-16 00:22N 34°42' E 135°17'0 0.0
2017-Sep-15 23:58N 34°42' E 135°17'0 0.0
2017-Sep-15 23:28N 34°42' E 135°17'0 0.0
2017-Sep-15 22:58N 34°42' E 135°17'2 3.4
2017-Sep-15 22:30N 34°41' E 135°18'917.0
2017-Sep-15 22:00N 34°34' E 135°11'917.1
2017-Sep-15 21:30N 34°37' E 135°01'7 0.2
2017-Sep-14 11:23N 34°35' E 134°53'718.7
2017-Sep-14 11:00N 34°37' E 135°01'1020.0
2017-Sep-14 10:30N 34°36' E 135°13'612.6
2017-Sep-14 10:00N 34°42' E 135°17'0 0.0
2017-Sep-14 09:27N 34°42' E 135°17'0 0.0
2017-Sep-14 08:15N 34°42' E 135°17'0 0.0
2017-Sep-14 07:57N 34°42' E 135°17'0 0.0
2017-Sep-14 07:27N 34°42' E 135°17'0 0.0
2017-Sep-14 06:57N 34°42' E 135°17'0 0.0
2017-Sep-14 06:27N 34°42' E 135°17'0 0.0
2017-Sep-14 05:57N 34°42' E 135°17'0 0.0
2017-Sep-14 05:27N 34°42' E 135°17'0 0.0
2017-Sep-14 04:57N 34°42' E 135°17'0 0.0
2017-Sep-14 04:27N 34°42' E 135°17'0 0.0
2017-Sep-14 03:51N 34°42' E 135°17'0 0.0
2017-Sep-14 02:57N 34°42' E 135°17'0 0.0
2017-Sep-14 02:27N 34°42' E 135°17'0 0.0
2017-Sep-14 01:57N 34°42' E 135°17'0 0.0
2017-Sep-14 01:27N 34°42' E 135°17'0 0.0
2017-Sep-14 00:57N 34°42' E 135°17'0 0.0
2017-Sep-14 00:15N 34°42' E 135°17'0 0.0
2017-Sep-13 23:57N 34°42' E 135°17'0 0.0
2017-Sep-13 23:27N 34°42' E 135°17'0 0.0
2017-Sep-13 22:57N 34°42' E 135°17'0 0.0
2017-Sep-13 22:27N 34°42' E 135°17'0 0.0
2017-Sep-13 21:57N 34°42' E 135°17'0 0.1
2017-Sep-13 21:30N 34°42' E 135°17'510.6
2017-Sep-13 21:00N 34°37' E 135°16'1019.6
2017-Sep-13 20:30N 34°35' E 135°04'1019.6
2017-Sep-13 19:59N 34°34' E 134°52'1 0.0
2017-Sep-12 11:24N 34°35' E 134°53'818.8
2017-Sep-12 10:59N 34°37' E 135°02'1020.0
2017-Sep-12 10:30N 34°36' E 135°14'612.2
2017-Sep-12 10:00N 34°42' E 135°17'0 0.0
2017-Sep-12 09:29N 34°42' E 135°17'0 0.0
2017-Sep-12 08:59N 34°42' E 135°17'0 0.0
2017-Sep-12 08:29N 34°42' E 135°17'0 0.0
2017-Sep-12 07:53N 34°42' E 135°17'0 0.0
2017-Sep-12 07:29N 34°42' E 135°17'0 0.0
2017-Sep-12 06:59N 34°42' E 135°17'0 0.0
2017-Sep-12 06:29N 34°42' E 135°17'0 0.0
2017-Sep-12 05:53N 34°42' E 135°17'0 0.0
2017-Sep-12 05:29N 34°42' E 135°17'0 0.0
2017-Sep-12 04:41N 34°42' E 135°17'0 0.0
2017-Sep-12 04:29N 34°42' E 135°17'0 0.0
2017-Sep-12 03:59N 34°42' E 135°17'0 0.0
2017-Sep-12 03:29N 34°42' E 135°17'0 0.0
2017-Sep-12 02:59N 34°42' E 135°17'0 0.0
2017-Sep-12 02:29N 34°42' E 135°17'0 0.0
2017-Sep-12 01:59N 34°42' E 135°17'  
Track history (hours):
 
Tides and Currents Weather Stations Pressure Air Temp Water Temp Dewpoint Dewpoint Depression Visibility Wind Speed Wind Dir Waves Ship Positions

Sunflower Pearl

Last reported at 2017-Sep-22 01:58 UTC. Time now 2017-Sep-22 09:57 UTC.
Position N 34°42' E 135°17'.

Length 166 m; draft 6 m.

Type: Passenger vessel. MMSI: 431000406.

Date/timePositionNaut miles runAvg speedWind from/ knotsBaromVisibWave heightAir tempDewpointWater temp
2017-Sep-22 01:58N 34°42' E 135°17'0 0.0
2017-Sep-22 01:28N 34°42' E 135°17'0 0.0
2017-Sep-22 00:52N 34°42' E 135°17'0 0.0
2017-Sep-22 00:22N 34°42' E 135°17'0 0.0
2017-Sep-21 23:52N 34°42' E 135°17'0 0.0
2017-Sep-21 23:22N 34°42' E 135°17'0 0.0
2017-Sep-21 22:52N 34°42' E 135°17'0 0.0
2017-Sep-21 22:28N 34°42' E 135°17'0 0.0
2017-Sep-21 21:58N 34°42' E 135°17'0 0.1
2017-Sep-21 21:30N 34°42' E 135°17'612.5
2017-Sep-21 21:00N 34°36' E 135°15'1019.6
2017-Sep-21 20:30N 34°35' E 135°04'12 0.4
2017-Sep-20 11:30N 34°34' E 134°49'1121.9
2017-Sep-20 11:00N 34°37' E 135°02'918.6
2017-Sep-20 10:30N 34°37' E 135°13'611.9
2017-Sep-20 10:00N 34°42' E 135°17'0 0.0
2017-Sep-20 09:30N 34°42' E 135°17'0 0.0
2017-Sep-20 09:00N 34°42' E 135°17'0 0.0
2017-Sep-20 08:30N 34°42' E 135°17'0 0.0
2017-Sep-20 08:00N 34°42' E 135°17'0 0.0
2017-Sep-20 07:30N 34°42' E 135°17'0 0.0
2017-Sep-20 07:00N 34°42' E 135°17'0 0.0
2017-Sep-20 06:15N 34°42' E 135°17'0 0.0
2017-Sep-20 05:51N 34°42' E 135°17'0 0.0
2017-Sep-20 05:27N 34°42' E 135°17'0 0.0
2017-Sep-20 04:57N 34°42' E 135°17'0 0.0
2017-Sep-20 04:27N 34°42' E 135°17'0 0.0
2017-Sep-20 03:57N 34°42' E 135°17'0 0.0
2017-Sep-20 03:27N 34°42' E 135°17'0 0.0
2017-Sep-20 02:51N 34°42' E 135°17'0 0.0
2017-Sep-20 02:27N 34°42' E 135°17'0 0.0
2017-Sep-20 01:57N 34°42' E 135°17'0 0.0
2017-Sep-20 01:21N 34°42' E 135°17'0 0.0
2017-Sep-20 00:57N 34°42' E 135°17'0 0.0
2017-Sep-20 00:27N 34°42' E 135°17'0 0.0
2017-Sep-19 23:57N 34°42' E 135°17'0 0.0
2017-Sep-19 23:27N 34°42' E 135°17'0 0.0
2017-Sep-19 22:57N 34°42' E 135°17'0 0.0
2017-Sep-19 22:21N 34°42' E 135°17'0 0.0
2017-Sep-19 21:45N 34°42' E 135°17'0 0.0
2017-Sep-19 21:30N 34°42' E 135°17'5 9.2
2017-Sep-19 21:00N 34°37' E 135°17'1020.3
2017-Sep-19 20:30N 34°35' E 135°06'918.2
2017-Sep-19 20:00N 34°35' E 134°54'3 0.1
2017-Sep-18 11:27N 34°34' E 134°50'1021.3
2017-Sep-18 11:00N 34°37' E 135°01'919.3
2017-Sep-18 10:30N 34°37' E 135°13'612.1
2017-Sep-18 10:00N 34°42' E 135°17'0 0.0
2017-Sep-18 09:26N 34°42' E 135°17'0 0.0
2017-Sep-18 08:56N 34°42' E 135°17'0 0.0
2017-Sep-18 08:26N 34°42' E 135°17'0 0.0
2017-Sep-18 07:56N 34°42' E 135°17'0 0.0
2017-Sep-18 07:26N 34°42' E 135°17'0 0.0
2017-Sep-18 06:56N 34°42' E 135°17'0 0.0
2017-Sep-18 06:26N 34°42' E 135°17'0 0.0
2017-Sep-18 05:56N 34°42' E 135°17'0 0.0
2017-Sep-18 05:26N 34°42' E 135°17'0 0.0
2017-Sep-18 04:56N 34°42' E 135°17'0 0.0
2017-Sep-18 04:26N 34°42' E 135°17'0 0.0
2017-Sep-18 03:56N 34°42' E 135°17'0 0.0
2017-Sep-18 03:26N 34°42' E 135°17'0 0.0
2017-Sep-18 02:56N 34°42' E 135°17'0 0.0
2017-Sep-18 02:20N 34°42' E 135°17'0 0.0
2017-Sep-18 02:00N 34°42' E 135°17'4 8.3
2017-Sep-18 01:31N 34°38' E 135°17'816.4
2017-Sep-18 01:00N 34°35' E 135°08'816.1
2017-Sep-18 00:30N 34°37' E 134°58'13 0.5
2017-Sep-16 23:31N 34°39' E 134°42'019.1
2017-Sep-16 23:30N 34°39' E 134°42'4 0.2
2017-Sep-16 05:46N 34°40' E 134°47'621.2
2017-Sep-16 05:28N 34°37' E 134°53'817.7
2017-Sep-16 05:00N 34°36' E 135°03'918.3
2017-Sep-16 04:30N 34°36' E 135°14'612.0
2017-Sep-16 04:00N 34°42' E 135°17'0 0.0
2017-Sep-16 03:28N 34°42' E 135°17'0 0.0
2017-Sep-16 02:58N 34°42' E 135°17'0 0.0
2017-Sep-16 02:28N 34°42' E 135°17'0 0.0
2017-Sep-16 01:58N 34°42' E 135°17'0 0.0
2017-Sep-16 01:28N 34°42' E 135°17'0 0.0
2017-Sep-16 00:46N 34°42' E 135°17'0 0.0
2017-Sep-16 00:22N 34°42' E 135°17'0 0.0
2017-Sep-15 23:58N 34°42' E 135°17'0 0.0
2017-Sep-15 23:28N 34°42' E 135°17'0 0.0
2017-Sep-15 22:58N 34°42' E 135°17'2 3.4
2017-Sep-15 22:30N 34°41' E 135°18'917.0
2017-Sep-15 22:00N 34°34' E 135°11'917.1
2017-Sep-15 21:30N 34°37' E 135°01'7 0.2
2017-Sep-14 11:23N 34°35' E 134°53'718.7
2017-Sep-14 11:00N 34°37' E 135°01'1020.0
2017-Sep-14 10:30N 34°36' E 135°13'612.6
2017-Sep-14 10:00N 34°42' E 135°17'0 0.0
2017-Sep-14 09:27N 34°42' E 135°17'0 0.0
2017-Sep-14 08:15N 34°42' E 135°17'0 0.0
2017-Sep-14 07:57N 34°42' E 135°17'0 0.0
2017-Sep-14 07:27N 34°42' E 135°17'0 0.0
2017-Sep-14 06:57N 34°42' E 135°17'0 0.0
2017-Sep-14 06:27N 34°42' E 135°17'0 0.0
2017-Sep-14 05:57N 34°42' E 135°17'0 0.0
2017-Sep-14 05:27N 34°42' E 135°17'0 0.0
2017-Sep-14 04:57N 34°42' E 135°17'0 0.0
2017-Sep-14 04:27N 34°42' E 135°17'0 0.0
2017-Sep-14 03:51N 34°42' E 135°17'0 0.0
2017-Sep-14 02:57N 34°42' E 135°17'0 0.0
2017-Sep-14 02:27N 34°42' E 135°17'0 0.0
2017-Sep-14 01:57N 34°42' E 135°17'0 0.0
2017-Sep-14 01:27N 34°42' E 135°17'0 0.0
2017-Sep-14 00:57N 34°42' E 135°17'0 0.0
2017-Sep-14 00:15N 34°42' E 135°17'0 0.0
2017-Sep-13 23:57N 34°42' E 135°17'0 0.0
2017-Sep-13 23:27N 34°42' E 135°17'0 0.0
2017-Sep-13 22:57N 34°42' E 135°17'0 0.0
2017-Sep-13 22:27N 34°42' E 135°17'0 0.0
2017-Sep-13 21:57N 34°42' E 135°17'0 0.1
2017-Sep-13 21:30N 34°42' E 135°17'510.6
2017-Sep-13 21:00N 34°37' E 135°16'1019.6
2017-Sep-13 20:30N 34°35' E 135°04'1019.6
2017-Sep-13 19:59N 34°34' E 134°52'1 0.0
2017-Sep-12 11:24N 34°35' E 134°53'818.8
2017-Sep-12 10:59N 34°37' E 135°02'1020.0
2017-Sep-12 10:30N 34°36' E 135°14'612.2
2017-Sep-12 10:00N 34°42' E 135°17'0 0.0
2017-Sep-12 09:29N 34°42' E 135°17'0 0.0
2017-Sep-12 08:59N 34°42' E 135°17'0 0.0
2017-Sep-12 08:29N 34°42' E 135°17'0 0.0
2017-Sep-12 07:53N 34°42' E 135°17'0 0.0
2017-Sep-12 07:29N 34°42' E 135°17'0 0.0
2017-Sep-12 06:59N 34°42' E 135°17'0 0.0
2017-Sep-12 06:29N 34°42' E 135°17'0 0.0
2017-Sep-12 05:53N 34°42' E 135°17'0 0.0
2017-Sep-12 05:29N 34°42' E 135°17'0 0.0
2017-Sep-12 04:41N 34°42' E 135°17'0 0.0
2017-Sep-12 04:29N 34°42' E 135°17'0 0.0
2017-Sep-12 03:59N 34°42' E 135°17'0 0.0
2017-Sep-12 03:29N 34°42' E 135°17'0 0.0
2017-Sep-12 02:59N 34°42' E 135°17'0 0.0
2017-Sep-12 02:29N 34°42' E 135°17'0 0.0
2017-Sep-12 01:59N 34°42' E 135°17'  

Dump ship's entire track history